createdAt,value
2023-04-04T00:00:09.238Z,99227.81
2023-04-04T00:03:11.187Z,99230.97
2023-04-04T00:06:12.782Z,99217.47
2023-04-04T00:09:14.409Z,99232.69
2023-04-04T00:12:16.146Z,99227.09
2023-04-04T00:15:17.748Z,99224.25
2023-04-04T00:18:19.247Z,99214.56
2023-04-04T00:21:20.815Z,99221.84
2023-04-04T00:24:22.513Z,99214.19
2023-04-04T00:27:24.093Z,99212.03
2023-04-04T00:30:25.800Z,99203.22
2023-04-04T00:33:27.464Z,99210.06
2023-04-04T00:36:29.088Z,99214.31
2023-04-04T00:39:30.681Z,99206.16
2023-04-04T00:42:34.047Z,99204.97
2023-04-04T00:45:35.749Z,99200.50
2023-04-04T00:48:37.456Z,99208.22
2023-04-04T00:51:38.974Z,99206.38
2023-04-04T00:54:40.561Z,99188.63
2023-04-04T00:57:42.128Z,99196.69
2023-04-04T01:00:43.690Z,99201.97
2023-04-04T01:03:45.394Z,99188.22
2023-04-04T01:06:47.015Z,99199.69
2023-04-04T01:09:48.627Z,99199.84
2023-04-04T01:12:50.122Z,99203.06
2023-04-04T01:15:51.674Z,99200.81
2023-04-04T01:18:53.276Z,99192.28
2023-04-04T01:21:54.810Z,99198.41
2023-04-04T01:24:56.718Z,99187.25
2023-04-04T01:28:01.255Z,99188.66
2023-04-04T01:31:03.115Z,99189.25
2023-04-04T01:34:13.897Z,99186.81
2023-04-04T01:37:41.150Z,99176.88
2023-04-04T01:40:46.664Z,99169.69
2023-04-04T01:43:48.365Z,99179.34
2023-04-04T01:46:55.019Z,99170.84
2023-04-04T01:49:56.540Z,99182.44
2023-04-04T01:52:58.122Z,99172.91
2023-04-04T01:55:59.962Z,99172.31
2023-04-04T01:59:01.658Z,99170.50
2023-04-04T02:02:03.211Z,99174.44
2023-04-04T02:05:05.045Z,99172.31
2023-04-04T02:08:09.462Z,99172.75
2023-04-04T02:11:10.972Z,99180.41
2023-04-04T02:14:12.762Z,99174.44
2023-04-04T02:17:14.242Z,99176.22
2023-04-04T02:20:19.331Z,99175.19
2023-04-04T02:23:21.032Z,99186.53
2023-04-04T02:26:22.606Z,99171.00
2023-04-04T02:29:24.209Z,99186.19
2023-04-04T02:32:25.795Z,99176.50
2023-04-04T02:35:27.405Z,99179.50
2023-04-04T02:38:28.925Z,99190.00
2023-04-04T02:41:30.471Z,99181.63
2023-04-04T02:44:32.030Z,99186.25
2023-04-04T02:47:33.595Z,99172.75
2023-04-04T02:50:35.145Z,99163.44
2023-04-04T02:53:36.709Z,99169.31
2023-04-04T02:56:40.492Z,99174.50
2023-04-04T02:59:42.011Z,99162.13
2023-04-04T03:02:43.666Z,99172.91
2023-04-04T03:05:45.241Z,99164.69
2023-04-04T03:08:47.012Z,99166.88
2023-04-04T03:11:49.801Z,99147.47
2023-04-04T03:14:51.374Z,99155.13
2023-04-04T03:17:53.190Z,99156.69
2023-04-04T03:20:54.818Z,99155.44
2023-04-04T03:23:56.455Z,99137.56
2023-04-04T03:27:00.785Z,99148.25
2023-04-04T03:30:02.457Z,99152.97
2023-04-04T03:33:07.633Z,99157.41
2023-04-04T03:36:13.221Z,99153.94
2023-04-04T03:39:14.855Z,99152.66
2023-04-04T03:42:16.787Z,99149.50
2023-04-04T03:45:18.978Z,99147.44
2023-04-04T03:48:20.577Z,99143.91
2023-04-04T03:51:25.707Z,99142.97
2023-04-04T03:54:28.238Z,99139.94
2023-04-04T03:57:29.804Z,99140.28
2023-04-04T04:00:31.605Z,99146.34
2023-04-04T04:03:33.331Z,99135.78
2023-04-04T04:06:37.943Z,99144.28
2023-04-04T04:09:39.908Z,99149.81
2023-04-04T04:12:41.856Z,99138.19
2023-04-04T04:15:43.585Z,99147.84
2023-04-04T04:18:45.185Z,99145.13
2023-04-04T04:21:46.777Z,99154.41
2023-04-04T04:24:48.322Z,99149.56
2023-04-04T04:27:49.895Z,99147.53
2023-04-04T04:30:52.252Z,99137.81
2023-04-04T04:33:53.848Z,99152.59
2023-04-04T04:36:55.424Z,99152.13
2023-04-04T04:39:57.288Z,99153.16
2023-04-04T04:42:58.835Z,99162.06
2023-04-04T04:46:01.141Z,99156.63
2023-04-04T04:49:02.832Z,99162.97
2023-04-04T04:52:06.833Z,99167.78
2023-04-04T04:55:08.698Z,99167.31
2023-04-04T04:58:10.999Z,99170.06
2023-04-04T05:01:12.660Z,99164.09
2023-04-04T05:04:14.733Z,99175.13
2023-04-04T05:07:16.380Z,99165.81
2023-04-04T05:10:18.066Z,99175.84
2023-04-04T05:13:20.579Z,99171.69
2023-04-04T05:16:22.184Z,99172.66
2023-04-04T05:19:23.838Z,99175.41
2023-04-04T05:22:25.521Z,99175.75
2023-04-04T05:25:27.660Z,99172.72
2023-04-04T05:28:29.285Z,99180.53
2023-04-04T05:31:30.844Z,99177.53
2023-04-04T05:34:32.591Z,99184.22
2023-04-04T05:37:40.534Z,99185.78
2023-04-04T05:40:42.358Z,99184.16
2023-04-04T05:43:44.057Z,99170.22
2023-04-04T05:46:45.652Z,99184.72
2023-04-04T05:49:47.375Z,99198.94
2023-04-04T05:52:48.905Z,99193.28
2023-04-04T05:55:53.889Z,99197.72
2023-04-04T05:58:55.692Z,99201.63
2023-04-04T06:01:57.587Z,99208.47
2023-04-04T06:04:59.253Z,99205.09
2023-04-04T06:08:00.908Z,99203.03
2023-04-04T06:11:02.436Z,99203.19
2023-04-04T06:14:04.051Z,99211.41
2023-04-04T06:17:05.583Z,99199.81
2023-04-04T06:20:08.394Z,99209.88
2023-04-04T06:23:10.246Z,99207.19
2023-04-04T06:26:12.706Z,99210.66
2023-04-04T06:29:14.273Z,99222.41
2023-04-04T06:32:15.996Z,99209.38
2023-04-04T06:35:19.629Z,99199.03
2023-04-04T06:38:21.989Z,99203.41
2023-04-04T06:41:23.615Z,99198.22
2023-04-04T06:44:25.206Z,99205.31
2023-04-04T06:47:26.904Z,99202.06
2023-04-04T06:50:30.973Z,99200.44
2023-04-04T06:53:32.600Z,99200.50
2023-04-04T06:56:36.925Z,99199.72
2023-04-04T06:59:38.533Z,99213.06
2023-04-04T07:02:40.408Z,99203.16
2023-04-04T07:05:42.682Z,99188.22
2023-04-04T07:08:44.258Z,99193.28
2023-04-04T07:11:46.150Z,99192.19
2023-04-04T07:14:47.675Z,99184.19
2023-04-04T07:17:49.585Z,99190.34
2023-04-04T07:20:51.283Z,99196.31
2023-04-04T07:23:53.782Z,99199.28
2023-04-04T07:26:55.377Z,99187.25
2023-04-04T07:29:56.964Z,99188.56
2023-04-04T07:32:59.353Z,99184.69
2023-04-04T07:36:04.220Z,99179.16
2023-04-04T07:39:07.168Z,99177.88
2023-04-04T07:42:08.740Z,99189.69
2023-04-04T07:45:10.606Z,99186.03
2023-04-04T07:48:12.188Z,99184.41
2023-04-04T07:51:14.036Z,99178.97
2023-04-04T07:54:15.826Z,99183.63
2023-04-04T07:57:17.376Z,99183.41
2023-04-04T08:00:21.887Z,99193.50
2023-04-04T08:03:25.852Z,99190.59
2023-04-04T08:06:27.629Z,99186.97
2023-04-04T08:09:34.491Z,99190.00
2023-04-04T08:12:36.157Z,99188.56
2023-04-04T08:15:38.135Z,99195.47
2023-04-04T08:18:39.800Z,99196.13
2023-04-04T08:21:41.608Z,99184.41
2023-04-04T08:24:43.196Z,99184.09
2023-04-04T08:27:45.588Z,99181.66
2023-04-04T08:30:47.234Z,99181.22
2023-04-04T08:33:48.898Z,99182.66
2023-04-04T08:36:50.497Z,99171.41
2023-04-04T08:39:52.012Z,99179.31
2023-04-04T08:42:53.713Z,99181.44
2023-04-04T08:45:55.240Z,99166.28
2023-04-04T08:48:56.988Z,99175.31
2023-04-04T08:51:59.592Z,99172.28
2023-04-04T08:55:01.421Z,99188.84
2023-04-04T08:58:03.402Z,99177.09
2023-04-04T09:01:05.762Z,99192.09
2023-04-04T09:04:08.684Z,99188.41
2023-04-04T09:07:13.378Z,99188.75
2023-04-04T09:10:15.194Z,99197.94
2023-04-04T09:13:17.094Z,99192.91
2023-04-04T09:16:18.675Z,99186.94
2023-04-04T09:19:20.265Z,99186.91
2023-04-04T09:22:22.335Z,99186.53
2023-04-04T09:25:23.848Z,99183.09
2023-04-04T09:28:25.523Z,99179.06
2023-04-04T09:31:27.300Z,99176.22
2023-04-04T09:34:29.039Z,99162.91
2023-04-04T09:37:30.596Z,99166.41
2023-04-04T09:40:32.397Z,99174.47
2023-04-04T09:43:35.562Z,99161.69
2023-04-04T09:46:40.961Z,99174.19
2023-04-04T09:49:42.714Z,99157.50
2023-04-04T09:52:44.400Z,99156.06
2023-04-04T09:55:53.615Z,99160.66
2023-04-04T09:59:03.010Z,99159.59
2023-04-04T10:02:08.901Z,99154.75
2023-04-04T10:05:10.844Z,99160.50
2023-04-04T10:08:21.383Z,99164.91
2023-04-04T10:11:32.532Z,99165.41
2023-04-04T10:14:37.791Z,99158.94
2023-04-04T10:17:40.245Z,99157.63
2023-04-04T10:20:42.797Z,99151.59
2023-04-04T10:23:47.506Z,99164.63
2023-04-04T10:26:49.178Z,99166.44
2023-04-04T10:29:51.572Z,99155.09
2023-04-04T10:32:59.447Z,99176.00
2023-04-04T10:36:03.360Z,99158.59
2023-04-04T10:39:21.711Z,99172.47
2023-04-04T10:42:26.343Z,99173.38
2023-04-04T10:45:29.119Z,99159.50
2023-04-04T10:48:30.675Z,99143.72
2023-04-04T10:51:35.330Z,99148.13
2023-04-04T10:54:44.112Z,99146.34
2023-04-04T10:57:54.778Z,99150.56
2023-04-04T11:00:56.781Z,99149.78
2023-04-04T11:04:23.712Z,99130.69
2023-04-04T11:07:28.172Z,99147.25
2023-04-04T11:10:36.807Z,99148.03
2023-04-04T11:13:40.322Z,99131.19
2023-04-04T11:16:48.581Z,99119.06
2023-04-04T11:20:00.247Z,99110.28
2023-04-04T11:23:09.042Z,99112.81
2023-04-04T11:26:10.665Z,99099.47
2023-04-04T11:29:20.840Z,99115.63
2023-04-04T11:32:52.965Z,99100.00
2023-04-04T11:36:07.734Z,99108.00
2023-04-04T11:39:29.863Z,99100.88
2023-04-04T11:42:38.482Z,99100.94
2023-04-04T11:45:48.931Z,99098.41
2023-04-04T11:48:51.620Z,99105.38
2023-04-04T11:51:53.286Z,99108.88
2023-04-04T11:54:54.888Z,99091.28
2023-04-04T11:58:06.140Z,99094.03
2023-04-04T12:01:08.389Z,99105.38
2023-04-04T12:04:10.405Z,99084.16
2023-04-04T12:07:12.740Z,99097.56
2023-04-04T12:10:54.816Z,99099.25
2023-04-04T12:22:39.124Z,99086.81
2023-04-04T13:05:18.848Z,99069.28
2023-04-04T13:13:41.426Z,99051.63
2023-04-04T14:28:46.780Z,99012.59
2023-04-04T14:31:48.508Z,98990.19
2023-04-04T14:34:55.481Z,98997.28
2023-04-04T14:37:57.183Z,99000.94
2023-04-04T14:41:00.859Z,99009.53
2023-04-04T14:44:02.652Z,99012.69
2023-04-04T14:47:07.446Z,99007.56
2023-04-04T14:50:09.646Z,99021.69
2023-04-04T14:53:11.285Z,99023.31
2023-04-04T14:56:13.294Z,99025.88
2023-04-04T14:59:19.749Z,99022.13
2023-04-04T15:02:23.859Z,99017.16
2023-04-04T15:05:27.827Z,99011.63
2023-04-04T15:08:29.362Z,99023.84
2023-04-04T15:11:31.029Z,99030.09
2023-04-04T15:14:32.636Z,99025.63
2023-04-04T15:17:34.230Z,99035.19
2023-04-04T15:20:39.923Z,99039.66
2023-04-04T15:23:42.049Z,99040.41
2023-04-04T15:26:43.810Z,99033.22
2023-04-04T15:29:48.023Z,99038.19
2023-04-04T15:32:50.812Z,99041.06
2023-04-04T15:35:53.963Z,99036.47
2023-04-04T15:38:56.051Z,99033.03
2023-04-04T15:41:59.214Z,99028.66
2023-04-04T15:45:03.653Z,99041.69
2023-04-04T15:48:05.598Z,99034.00
2023-04-04T15:51:07.211Z,99034.59
2023-04-04T15:54:08.712Z,99033.09
2023-04-04T15:57:10.383Z,99029.47
2023-04-04T16:00:17.712Z,99035.47
2023-04-04T16:03:21.867Z,99033.91
2023-04-04T16:06:29.023Z,99023.50
2023-04-04T16:09:40.706Z,99018.38
2023-04-04T16:13:10.271Z,99021.84
2023-04-04T16:16:12.240Z,99012.34
2023-04-04T16:19:23.802Z,99016.56
2023-04-04T16:22:31.268Z,99003.47
2023-04-04T16:25:38.673Z,99009.44
2023-04-04T16:28:41.368Z,99012.09
2023-04-04T16:31:47.826Z,99002.56
2023-04-04T16:34:49.701Z,98998.69
2023-04-04T16:37:51.986Z,99004.75
2023-04-04T16:40:53.636Z,99007.44
2023-04-04T16:44:02.028Z,99006.44
2023-04-04T16:47:06.927Z,99006.41
2023-04-04T16:50:13.969Z,99002.03
2023-04-04T16:53:19.225Z,99003.72
2023-04-04T16:56:28.131Z,99006.97
2023-04-04T16:59:35.245Z,99007.72
2023-04-04T17:02:46.395Z,99010.38
2023-04-04T17:05:56.289Z,99010.56
2023-04-04T17:09:01.382Z,99024.25
2023-04-04T17:12:04.542Z,99025.13
2023-04-04T17:15:17.704Z,99009.41
2023-04-04T17:18:27.205Z,99020.44
2023-04-04T17:21:30.212Z,99027.25
2023-04-04T17:24:35.042Z,99022.84
2023-04-04T17:27:52.069Z,99021.63
2023-04-04T17:30:57.005Z,99026.59
2023-04-04T17:34:17.256Z,99028.28
2023-04-04T17:37:19.241Z,99022.66
2023-04-04T17:40:23.847Z,99011.16
2023-04-04T17:43:36.850Z,99029.41
2023-04-04T17:46:40.872Z,99020.47
2023-04-04T17:49:48.927Z,99009.03
2023-04-04T17:52:59.427Z,99015.59
2023-04-04T17:56:10.848Z,99003.28
2023-04-04T17:59:13.981Z,99016.97
2023-04-04T18:02:30.053Z,99015.03
2023-04-04T18:05:32.446Z,99020.91
2023-04-04T18:08:41.181Z,99015.66
2023-04-04T18:11:46.768Z,99020.56
2023-04-04T18:14:53.821Z,99016.81
2023-04-04T18:18:06.539Z,99017.13
2023-04-04T18:21:12.184Z,99025.47
2023-04-04T18:24:35.293Z,99033.84
2023-04-04T18:28:06.184Z,99035.41
2023-04-04T18:31:09.368Z,99045.91
2023-04-04T18:34:15.260Z,99040.34
2023-04-04T18:37:32.461Z,99043.31
2023-04-04T18:40:58.970Z,99045.03
2023-04-04T18:44:06.624Z,99042.44
2023-04-04T18:47:08.478Z,99039.47
2023-04-04T18:50:10.376Z,99048.69
2023-04-04T18:53:12.651Z,99043.28
2023-04-04T18:56:50.164Z,99044.53
2023-04-04T18:59:59.803Z,99057.19
2023-04-04T19:03:01.593Z,99062.47
2023-04-04T19:06:05.093Z,99057.59
2023-04-04T19:09:07.004Z,99069.19
2023-04-04T19:12:08.586Z,99067.19
2023-04-04T19:15:10.428Z,99071.72
2023-04-04T19:18:12.057Z,99076.97
2023-04-04T19:21:13.640Z,99073.84
2023-04-04T19:24:15.209Z,99068.59
2023-04-04T19:27:16.766Z,99070.25
2023-04-04T19:30:49.921Z,99072.84
2023-04-04T19:33:54.875Z,99073.69
2023-04-04T19:36:56.418Z,99078.75
2023-04-04T19:39:57.948Z,99072.69
2023-04-04T19:43:00.554Z,99071.97
2023-04-04T19:46:07.216Z,99073.00
2023-04-04T19:49:12.675Z,99070.22
2023-04-04T19:52:23.912Z,99074.72
2023-04-04T19:55:40.174Z,99078.78
2023-04-04T19:58:42.169Z,99069.34
2023-04-04T20:01:53.738Z,99076.81
2023-04-04T20:05:01.694Z,99082.56
2023-04-04T20:08:03.329Z,99074.84
2023-04-04T20:11:05.422Z,99071.81
2023-04-04T20:14:08.139Z,99077.53
2023-04-04T20:17:09.752Z,99076.25
2023-04-04T20:20:11.541Z,99079.88
2023-04-04T20:23:14.249Z,99083.81
2023-04-04T20:26:59.855Z,99084.56
2023-04-04T20:30:01.460Z,99087.16
2023-04-04T20:33:08.010Z,99075.53
2023-04-04T20:36:10.500Z,99082.56
2023-04-04T20:39:38.726Z,99088.50
2023-04-04T20:42:40.747Z,99098.34
2023-04-04T20:45:46.756Z,99091.94
2023-04-04T20:48:48.725Z,99097.97
2023-04-04T20:51:50.412Z,99091.59
2023-04-04T20:54:51.932Z,99101.00
2023-04-04T20:57:54.589Z,99093.84
2023-04-04T21:00:59.578Z,99091.22
2023-04-04T21:04:01.688Z,99089.34
2023-04-04T21:07:04.474Z,99091.34
2023-04-04T21:10:22.653Z,99088.19
2023-04-04T21:13:27.743Z,99084.91
2023-04-04T21:16:29.917Z,99088.84
2023-04-04T21:19:34.809Z,99086.78
2023-04-04T21:22:36.664Z,99078.88
2023-04-04T21:25:44.570Z,99081.00
2023-04-04T21:28:46.130Z,99072.78
2023-04-04T21:31:48.766Z,99078.44
2023-04-04T21:34:51.060Z,99078.69
2023-04-04T21:37:52.625Z,99083.75
2023-04-04T21:40:55.900Z,99078.94
2023-04-04T21:43:58.748Z,99073.25
2023-04-04T21:47:00.273Z,99074.31
2023-04-04T21:50:03.320Z,99088.81
2023-04-04T21:53:04.842Z,99096.41
2023-04-04T21:56:06.479Z,99088.50
2023-04-04T21:59:11.206Z,99082.72
2023-04-04T22:02:12.795Z,99091.75
2023-04-04T22:05:14.525Z,99081.88
2023-04-04T22:08:16.274Z,99081.88
2023-04-04T22:11:20.596Z,99084.19
2023-04-04T22:14:22.773Z,99079.59
2023-04-04T22:17:24.626Z,99085.44
2023-04-04T22:20:26.238Z,99091.69
2023-04-04T22:23:27.766Z,99091.25
2023-04-04T22:26:32.487Z,99085.25
2023-04-04T22:29:34.389Z,99078.59
2023-04-04T22:32:35.965Z,99090.75
2023-04-04T22:35:37.626Z,99093.38
2023-04-04T22:38:39.670Z,99091.78
2023-04-04T22:41:41.200Z,99083.63
2023-04-04T22:44:42.860Z,99080.25
2023-04-04T22:47:47.210Z,99086.34
2023-04-04T22:50:51.384Z,99072.34
2023-04-04T22:53:57.658Z,99068.22
2023-04-04T22:57:00.638Z,99069.72
2023-04-04T23:00:06.289Z,99067.09
2023-04-04T23:03:07.940Z,99070.13
2023-04-04T23:06:09.501Z,99061.28
2023-04-04T23:09:11.168Z,99065.41
2023-04-04T23:12:12.729Z,99054.63
2023-04-04T23:15:14.517Z,99054.53
2023-04-04T23:18:16.135Z,99056.34
2023-04-04T23:21:17.684Z,99055.41
2023-04-04T23:24:19.200Z,99048.28
2023-04-04T23:27:21.081Z,99043.09
2023-04-04T23:30:25.626Z,99041.91
2023-04-04T23:33:27.286Z,99045.75
2023-04-04T23:36:28.838Z,99037.38
2023-04-04T23:39:30.351Z,99027.72
2023-04-04T23:42:31.876Z,99026.84
2023-04-04T23:45:34.731Z,99032.03
2023-04-04T23:48:36.335Z,99022.59
2023-04-04T23:51:38.400Z,99020.66
2023-04-04T23:54:39.937Z,99020.84
2023-04-04T23:57:43.632Z,99011.09
